Momignies, Belgium
Current Conditions -  °F | °C
As of 7:55 PM on Sunday 23 Nov 2014 (Local Time) from EBFS Reporting Station
Broken Clouds Broken Clouds  
Wind Chill: 55°   Ceiling: 13000
Heat Index: 55°   Visibility: 6mi
Dew Point: 50°   Wind: 8mph
Humidity: 82%   Direction: 200°SSW
Pressure: 29.97"   Gusts: NA
Location:  50.03°N, 4.17°E
Report Text: EBFS 231855Z 20007KT 9999 FEW100 BKN130 13/10 Q1015 BLU
Loading
Personal Weather Stations






























Interactive Weather Map New forecast layout! Learn more

10-Day Weather Forecast

Advertisements
Track Severe Weather on mobile